sensor_id;sensor_type;location;lat;lon;timestamp;P1;durP1;ratioP1;P2;durP2;ratioP2
84189;SDS011;74321;53.406;8.146;2024-01-30T00:03:09;25.77;;;13.38;;
84189;SDS011;74321;53.406;8.146;2024-01-30T00:08:10;27.55;;;13.95;;
84189;SDS011;74321;53.406;8.146;2024-01-30T00:13:15;24.45;;;14.27;;
84189;SDS011;74321;53.406;8.146;2024-01-30T00:18:24;22.45;;;12.63;;
84189;SDS011;74321;53.406;8.146;2024-01-30T00:23:26;23.38;;;12.43;;
84189;SDS011;74321;53.406;8.146;2024-01-30T00:28:28;25.50;;;13.55;;
84189;SDS011;74321;53.406;8.146;2024-01-30T00:33:30;23.80;;;12.98;;
84189;SDS011;74321;53.406;8.146;2024-01-30T00:38:34;26.13;;;13.32;;
84189;SDS011;74321;53.406;8.146;2024-01-30T00:43:41;24.08;;;13.48;;
84189;SDS011;74321;53.406;8.146;2024-01-30T00:48:43;23.88;;;13.15;;
84189;SDS011;74321;53.406;8.146;2024-01-30T00:53:46;25.70;;;12.98;;
84189;SDS011;74321;53.406;8.146;2024-01-30T00:58:47;26.13;;;13.15;;
84189;SDS011;74321;53.406;8.146;2024-01-30T01:03:50;24.00;;;13.20;;
84189;SDS011;74321;53.406;8.146;2024-01-30T01:08:52;24.15;;;13.52;;
84189;SDS011;74321;53.406;8.146;2024-01-30T01:13:54;23.52;;;12.82;;
84189;SDS011;74321;53.406;8.146;2024-01-30T01:18:56;25.27;;;13.10;;
84189;SDS011;74321;53.406;8.146;2024-01-30T01:23:58;25.67;;;12.90;;
84189;SDS011;74321;53.406;8.146;2024-01-30T01:29:00;23.30;;;13.45;;
84189;SDS011;74321;53.406;8.146;2024-01-30T01:34:02;26.75;;;13.85;;
84189;SDS011;74321;53.406;8.146;2024-01-30T01:39:04;25.08;;;13.18;;
84189;SDS011;74321;53.406;8.146;2024-01-30T01:44:07;24.15;;;12.73;;
84189;SDS011;74321;53.406;8.146;2024-01-30T01:49:09;21.30;;;13.23;;
84189;SDS011;74321;53.406;8.146;2024-01-30T01:54:11;24.33;;;13.77;;
84189;SDS011;74321;53.406;8.146;2024-01-30T01:59:14;29.98;;;14.50;;
84189;SDS011;74321;53.406;8.146;2024-01-30T02:04:16;26.45;;;13.93;;
84189;SDS011;74321;53.406;8.146;2024-01-30T02:09:21;29.08;;;14.10;;
84189;SDS011;74321;53.406;8.146;2024-01-30T02:14:23;22.75;;;12.43;;
84189;SDS011;74321;53.406;8.146;2024-01-30T02:19:27;26.15;;;13.80;;
84189;SDS011;74321;53.406;8.146;2024-01-30T02:24:29;24.10;;;12.77;;
84189;SDS011;74321;53.406;8.146;2024-01-30T02:29:31;27.80;;;13.52;;
84189;SDS011;74321;53.406;8.146;2024-01-30T02:34:33;26.00;;;12.75;;
84189;SDS011;74321;53.406;8.146;2024-01-30T02:39:36;26.50;;;13.23;;
84189;SDS011;74321;53.406;8.146;2024-01-30T02:44:38;27.10;;;14.50;;
84189;SDS011;74321;53.406;8.146;2024-01-30T02:49:39;25.25;;;13.50;;
84189;SDS011;74321;53.406;8.146;2024-01-30T02:54:42;29.10;;;13.77;;
84189;SDS011;74321;53.406;8.146;2024-01-30T02:59:44;23.73;;;13.10;;
84189;SDS011;74321;53.406;8.146;2024-01-30T03:04:46;22.95;;;12.73;;
84189;SDS011;74321;53.406;8.146;2024-01-30T03:09:48;24.05;;;14.10;;
84189;SDS011;74321;53.406;8.146;2024-01-30T03:14:50;27.27;;;13.68;;
84189;SDS011;74321;53.406;8.146;2024-01-30T03:19:52;26.75;;;13.63;;
84189;SDS011;74321;53.406;8.146;2024-01-30T03:24:54;27.85;;;15.93;;
84189;SDS011;74321;53.406;8.146;2024-01-30T03:29:56;30.27;;;14.45;;
84189;SDS011;74321;53.406;8.146;2024-01-30T03:35:01;25.83;;;13.82;;
84189;SDS011;74321;53.406;8.146;2024-01-30T03:40:03;30.15;;;15.40;;
84189;SDS011;74321;53.406;8.146;2024-01-30T03:45:06;25.63;;;14.77;;
84189;SDS011;74321;53.406;8.146;2024-01-30T03:50:09;21.52;;;12.23;;
84189;SDS011;74321;53.406;8.146;2024-01-30T03:55:12;27.90;;;14.68;;
84189;SDS011;74321;53.406;8.146;2024-01-30T05:48:04;29.30;;;14.75;;
84189;SDS011;74321;53.406;8.146;2024-01-30T05:53:08;30.23;;;15.88;;
84189;SDS011;74321;53.406;8.146;2024-01-30T05:58:10;36.03;;;18.50;;
84189;SDS011;74321;53.406;8.146;2024-01-30T06:03:13;30.33;;;15.60;;
84189;SDS011;74321;53.406;8.146;2024-01-30T06:08:14;30.50;;;14.90;;
84189;SDS011;74321;53.406;8.146;2024-01-30T06:13:17;29.30;;;14.57;;
84189;SDS011;74321;53.406;8.146;2024-01-30T06:18:19;29.50;;;14.95;;
84189;SDS011;74321;53.406;8.146;2024-01-30T06:23:22;29.83;;;14.75;;
84189;SDS011;74321;53.406;8.146;2024-01-30T06:28:29;26.15;;;14.15;;
84189;SDS011;74321;53.406;8.146;2024-01-30T06:33:31;25.80;;;14.15;;
84189;SDS011;74321;53.406;8.146;2024-01-30T06:38:33;25.80;;;13.48;;
84189;SDS011;74321;53.406;8.146;2024-01-30T06:43:35;29.73;;;15.65;;
84189;SDS011;74321;53.406;8.146;2024-01-30T06:48:40;23.42;;;11.82;;
84189;SDS011;74321;53.406;8.146;2024-01-30T06:53:42;25.83;;;13.82;;
84189;SDS011;74321;53.406;8.146;2024-01-30T06:58:44;26.25;;;14.60;;
84189;SDS011;74321;53.406;8.146;2024-01-30T07:03:49;22.85;;;11.70;;
84189;SDS011;74321;53.406;8.146;2024-01-30T07:08:51;23.27;;;13.13;;
84189;SDS011;74321;53.406;8.146;2024-01-30T07:13:53;27.85;;;14.43;;
84189;SDS011;74321;53.406;8.146;2024-01-30T07:18:55;25.88;;;12.98;;
84189;SDS011;74321;53.406;8.146;2024-01-30T07:23:59;26.92;;;13.40;;
84189;SDS011;74321;53.406;8.146;2024-01-30T07:29:02;23.15;;;13.00;;
84189;SDS011;74321;53.406;8.146;2024-01-30T07:34:04;22.92;;;12.27;;
84189;SDS011;74321;53.406;8.146;2024-01-30T07:39:07;23.48;;;13.13;;
84189;SDS011;74321;53.406;8.146;2024-01-30T07:44:12;22.58;;;12.65;;
84189;SDS011;74321;53.406;8.146;2024-01-30T07:49:15;18.20;;;10.80;;
84189;SDS011;74321;53.406;8.146;2024-01-30T07:54:20;23.17;;;12.85;;
84189;SDS011;74321;53.406;8.146;2024-01-30T07:59:21;22.08;;;11.88;;
84189;SDS011;74321;53.406;8.146;2024-01-30T08:04:26;19.35;;;10.88;;
84189;SDS011;74321;53.406;8.146;2024-01-30T08:09:28;21.35;;;11.63;;
84189;SDS011;74321;53.406;8.146;2024-01-30T08:14:30;17.77;;;10.98;;
84189;SDS011;74321;53.406;8.146;2024-01-30T08:19:32;19.08;;;11.88;;
84189;SDS011;74321;53.406;8.146;2024-01-30T08:24:36;22.65;;;11.57;;
84189;SDS011;74321;53.406;8.146;2024-01-30T08:29:38;15.48;;;8.48;;
84189;SDS011;74321;53.406;8.146;2024-01-30T08:34:40;17.55;;;10.00;;
84189;SDS011;74321;53.406;8.146;2024-01-30T08:39:43;17.10;;;9.75;;
84189;SDS011;74321;53.406;8.146;2024-01-30T08:44:45;19.00;;;10.38;;
84189;SDS011;74321;53.406;8.146;2024-01-30T08:49:48;17.75;;;10.25;;
84189;SDS011;74321;53.406;8.146;2024-01-30T08:54:53;16.65;;;8.25;;
84189;SDS011;74321;53.406;8.146;2024-01-30T08:59:56;18.45;;;10.27;;
84189;SDS011;74321;53.406;8.146;2024-01-30T09:04:58;20.13;;;9.65;;
84189;SDS011;74321;53.406;8.146;2024-01-30T09:10:00;18.52;;;8.82;;
84189;SDS011;74321;53.406;8.146;2024-01-30T09:15:03;16.95;;;9.35;;
84189;SDS011;74321;53.406;8.146;2024-01-30T09:20:05;17.33;;;9.80;;
84189;SDS011;74321;53.406;8.146;2024-01-30T09:25:08;17.02;;;9.32;;
84189;SDS011;74321;53.406;8.146;2024-01-30T09:30:10;15.18;;;9.13;;
84189;SDS011;74321;53.406;8.146;2024-01-30T09:35:13;17.02;;;9.82;;
84189;SDS011;74321;53.406;8.146;2024-01-30T09:40:15;19.42;;;9.75;;
84189;SDS011;74321;53.406;8.146;2024-01-30T09:45:23;16.52;;;9.43;;
84189;SDS011;74321;53.406;8.146;2024-01-30T09:50:26;19.27;;;9.70;;
84189;SDS011;74321;53.406;8.146;2024-01-30T09:55:35;15.55;;;9.07;;
84189;SDS011;74321;53.406;8.146;2024-01-30T10:00:38;17.33;;;9.35;;
84189;SDS011;74321;53.406;8.146;2024-01-30T10:05:41;17.85;;;9.13;;
84189;SDS011;74321;53.406;8.146;2024-01-30T10:10:48;16.15;;;9.05;;
84189;SDS011;74321;53.406;8.146;2024-01-30T10:15:56;18.48;;;10.15;;
84189;SDS011;74321;53.406;8.146;2024-01-30T10:20:59;19.50;;;9.82;;
84189;SDS011;74321;53.406;8.146;2024-01-30T10:26:07;15.52;;;8.20;;
84189;SDS011;74321;53.406;8.146;2024-01-30T10:31:30;15.05;;;8.13;;
84189;SDS011;74321;53.406;8.146;2024-01-30T10:36:39;15.30;;;7.22;;
84189;SDS011;74321;53.406;8.146;2024-01-30T10:41:43;13.65;;;8.15;;
84189;SDS011;74321;53.406;8.146;2024-01-30T10:46:51;13.77;;;7.80;;
84189;SDS011;74321;53.406;8.146;2024-01-30T10:52:05;16.65;;;7.60;;
84189;SDS011;74321;53.406;8.146;2024-01-30T10:57:09;12.98;;;6.78;;
84189;SDS011;74321;53.406;8.146;2024-01-30T11:02:13;12.85;;;7.65;;
84189;SDS011;74321;53.406;8.146;2024-01-30T11:07:19;11.77;;;7.50;;
84189;SDS011;74321;53.406;8.146;2024-01-30T11:12:27;12.93;;;7.35;;
84189;SDS011;74321;53.406;8.146;2024-01-30T11:17:39;16.30;;;7.97;;
84189;SDS011;74321;53.406;8.146;2024-01-30T11:22:55;16.95;;;7.55;;
84189;SDS011;74321;53.406;8.146;2024-01-30T11:27:57;14.30;;;7.22;;
84189;SDS011;74321;53.406;8.146;2024-01-30T11:38:08;13.90;;;7.88;;
84189;SDS011;74321;53.406;8.146;2024-01-30T11:43:11;10.60;;;6.82;;
84189;SDS011;74321;53.406;8.146;2024-01-30T11:48:14;12.48;;;6.85;;
84189;SDS011;74321;53.406;8.146;2024-01-30T11:53:17;13.93;;;7.65;;
84189;SDS011;74321;53.406;8.146;2024-01-30T11:58:19;16.00;;;7.55;;
84189;SDS011;74321;53.406;8.146;2024-01-30T12:03:21;12.70;;;7.45;;
84189;SDS011;74321;53.406;8.146;2024-01-30T12:08:24;11.75;;;6.93;;
84189;SDS011;74321;53.406;8.146;2024-01-30T12:13:26;11.90;;;7.53;;
84189;SDS011;74321;53.406;8.146;2024-01-30T12:18:33;14.90;;;8.25;;
84189;SDS011;74321;53.406;8.146;2024-01-30T12:23:36;15.70;;;7.55;;
84189;SDS011;74321;53.406;8.146;2024-01-30T12:28:47;16.50;;;7.90;;
84189;SDS011;74321;53.406;8.146;2024-01-30T12:33:53;14.98;;;7.63;;
84189;SDS011;74321;53.406;8.146;2024-01-30T12:38:56;12.57;;;7.45;;
84189;SDS011;74321;53.406;8.146;2024-01-30T12:43:59;16.35;;;7.68;;
84189;SDS011;74321;53.406;8.146;2024-01-30T12:49:01;14.18;;;7.95;;
84189;SDS011;74321;53.406;8.146;2024-01-30T12:54:06;16.58;;;7.72;;
84189;SDS011;74321;53.406;8.146;2024-01-30T12:59:22;15.88;;;8.15;;
84189;SDS011;74321;53.406;8.146;2024-01-30T13:04:25;14.80;;;7.72;;
84189;SDS011;74321;53.406;8.146;2024-01-30T13:09:29;17.90;;;8.38;;
84189;SDS011;74321;53.406;8.146;2024-01-30T13:14:32;19.52;;;8.55;;
84189;SDS011;74321;53.406;8.146;2024-01-30T13:19:34;18.33;;;10.02;;
84189;SDS011;74321;53.406;8.146;2024-01-30T13:24:36;17.05;;;8.50;;
84189;SDS011;74321;53.406;8.146;2024-01-30T13:29:38;16.70;;;8.82;;
84189;SDS011;74321;53.406;8.146;2024-01-30T13:34:40;16.00;;;9.38;;
84189;SDS011;74321;53.406;8.146;2024-01-30T13:39:48;14.27;;;8.30;;
84189;SDS011;74321;53.406;8.146;2024-01-30T13:44:50;18.27;;;9.75;;
84189;SDS011;74321;53.406;8.146;2024-01-30T13:49:52;15.30;;;8.40;;
84189;SDS011;74321;53.406;8.146;2024-01-30T13:54:55;18.40;;;8.18;;
84189;SDS011;74321;53.406;8.146;2024-01-30T13:59:57;14.85;;;8.30;;
84189;SDS011;74321;53.406;8.146;2024-01-30T14:04:59;17.40;;;9.05;;
84189;SDS011;74321;53.406;8.146;2024-01-30T14:10:01;14.50;;;8.10;;
84189;SDS011;74321;53.406;8.146;2024-01-30T14:15:07;11.90;;;7.60;;
84189;SDS011;74321;53.406;8.146;2024-01-30T14:20:27;13.82;;;8.55;;
84189;SDS011;74321;53.406;8.146;2024-01-30T14:25:29;13.25;;;7.05;;
84189;SDS011;74321;53.406;8.146;2024-01-30T14:30:32;11.77;;;8.10;;
84189;SDS011;74321;53.406;8.146;2024-01-30T14:35:34;15.95;;;7.80;;
84189;SDS011;74321;53.406;8.146;2024-01-30T14:40:35;14.00;;;7.97;;
84189;SDS011;74321;53.406;8.146;2024-01-30T14:45:38;12.82;;;8.38;;
84189;SDS011;74321;53.406;8.146;2024-01-30T14:50:39;18.48;;;7.25;;
84189;SDS011;74321;53.406;8.146;2024-01-30T14:55:41;10.85;;;5.63;;
84189;SDS011;74321;53.406;8.146;2024-01-30T15:00:46;13.52;;;5.55;;
84189;SDS011;74321;53.406;8.146;2024-01-30T15:05:48;7.70;;;4.20;;
84189;SDS011;74321;53.406;8.146;2024-01-30T15:10:50;10.73;;;4.93;;
84189;SDS011;74321;53.406;8.146;2024-01-30T15:15:52;6.88;;;3.75;;
84189;SDS011;74321;53.406;8.146;2024-01-30T15:20:55;6.10;;;3.40;;
84189;SDS011;74321;53.406;8.146;2024-01-30T15:25:57;9.65;;;3.92;;
84189;SDS011;74321;53.406;8.146;2024-01-30T15:31:01;6.75;;;3.33;;
84189;SDS011;74321;53.406;8.146;2024-01-30T15:41:05;5.93;;;3.20;;
84189;SDS011;74321;53.406;8.146;2024-01-30T15:46:08;7.05;;;3.10;;
84189;SDS011;74321;53.406;8.146;2024-01-30T15:51:10;6.70;;;2.90;;
84189;SDS011;74321;53.406;8.146;2024-01-30T15:56:12;5.22;;;3.13;;
84189;SDS011;74321;53.406;8.146;2024-01-30T16:01:15;5.57;;;2.92;;
84189;SDS011;74321;53.406;8.146;2024-01-30T16:06:18;6.53;;;3.20;;
84189;SDS011;74321;53.406;8.146;2024-01-30T16:11:20;5.38;;;2.90;;
84189;SDS011;74321;53.406;8.146;2024-01-30T16:16:22;8.15;;;3.28;;
84189;SDS011;74321;53.406;8.146;2024-01-30T16:21:24;5.82;;;3.30;;
84189;SDS011;74321;53.406;8.146;2024-01-30T16:26:26;5.63;;;3.30;;
84189;SDS011;74321;53.406;8.146;2024-01-30T16:31:30;5.07;;;2.75;;
84189;SDS011;74321;53.406;8.146;2024-01-30T16:36:32;4.57;;;2.47;;
84189;SDS011;74321;53.406;8.146;2024-01-30T16:41:34;6.18;;;3.40;;
84189;SDS011;74321;53.406;8.146;2024-01-30T16:46:37;3.90;;;2.17;;
84189;SDS011;74321;53.406;8.146;2024-01-30T16:51:43;3.30;;;2.13;;
84189;SDS011;74321;53.406;8.146;2024-01-30T16:56:45;6.25;;;2.65;;
84189;SDS011;74321;53.406;8.146;2024-01-30T17:01:49;3.00;;;2.00;;
84189;SDS011;74321;53.406;8.146;2024-01-30T17:06:51;2.65;;;1.67;;
84189;SDS011;74321;53.406;8.146;2024-01-30T17:11:54;2.15;;;1.67;;
84189;SDS011;74321;53.406;8.146;2024-01-30T17:16:56;2.25;;;1.70;;
84189;SDS011;74321;53.406;8.146;2024-01-30T17:22:10;4.60;;;2.25;;
84189;SDS011;74321;53.406;8.146;2024-01-30T17:32:16;2.90;;;1.80;;
84189;SDS011;74321;53.406;8.146;2024-01-30T17:37:18;4.93;;;2.15;;
84189;SDS011;74321;53.406;8.146;2024-01-30T17:42:20;4.50;;;2.42;;
84189;SDS011;74321;53.406;8.146;2024-01-30T17:47:26;5.63;;;2.97;;
84189;SDS011;74321;53.406;8.146;2024-01-30T17:52:28;4.97;;;3.03;;
84189;SDS011;74321;53.406;8.146;2024-01-30T17:57:30;6.03;;;3.60;;
84189;SDS011;74321;53.406;8.146;2024-01-30T18:02:32;6.32;;;3.42;;
84189;SDS011;74321;53.406;8.146;2024-01-30T18:07:34;6.95;;;4.20;;
84189;SDS011;74321;53.406;8.146;2024-01-30T18:12:36;6.20;;;3.45;;
84189;SDS011;74321;53.406;8.146;2024-01-30T18:17:38;7.60;;;3.90;;
84189;SDS011;74321;53.406;8.146;2024-01-30T18:22:40;6.20;;;3.92;;
84189;SDS011;74321;53.406;8.146;2024-01-30T18:27:43;8.52;;;4.70;;
84189;SDS011;74321;53.406;8.146;2024-01-30T18:32:48;9.32;;;4.93;;
84189;SDS011;74321;53.406;8.146;2024-01-30T18:37:50;10.32;;;4.93;;
84189;SDS011;74321;53.406;8.146;2024-01-30T18:42:53;9.38;;;4.55;;
84189;SDS011;74321;53.406;8.146;2024-01-30T18:47:55;14.63;;;6.88;;
84189;SDS011;74321;53.406;8.146;2024-01-30T18:53:00;10.23;;;5.35;;
84189;SDS011;74321;53.406;8.146;2024-01-30T18:58:01;8.43;;;4.22;;
84189;SDS011;74321;53.406;8.146;2024-01-30T19:03:04;14.00;;;5.55;;
84189;SDS011;74321;53.406;8.146;2024-01-30T19:08:06;9.65;;;4.30;;
84189;SDS011;74321;53.406;8.146;2024-01-30T19:13:09;13.73;;;4.68;;
84189;SDS011;74321;53.406;8.146;2024-01-30T19:18:11;18.30;;;5.68;;
84189;SDS011;74321;53.406;8.146;2024-01-30T19:23:15;11.35;;;3.85;;
84189;SDS011;74321;53.406;8.146;2024-01-30T19:28:18;7.80;;;2.60;;
84189;SDS011;74321;53.406;8.146;2024-01-30T19:33:20;13.25;;;3.95;;
84189;SDS011;74321;53.406;8.146;2024-01-30T19:38:22;6.15;;;2.22;;
84189;SDS011;74321;53.406;8.146;2024-01-30T19:43:26;14.73;;;3.72;;
84189;SDS011;74321;53.406;8.146;2024-01-30T19:48:29;14.90;;;4.10;;
84189;SDS011;74321;53.406;8.146;2024-01-30T19:53:34;12.77;;;4.75;;
84189;SDS011;74321;53.406;8.146;2024-01-30T19:58:36;10.38;;;3.72;;
84189;SDS011;74321;53.406;8.146;2024-01-30T20:03:38;6.63;;;3.53;;
84189;SDS011;74321;53.406;8.146;2024-01-30T20:08:40;8.52;;;2.78;;
84189;SDS011;74321;53.406;8.146;2024-01-30T20:13:43;7.75;;;3.20;;
84189;SDS011;74321;53.406;8.146;2024-01-30T20:18:45;7.82;;;3.72;;
84189;SDS011;74321;53.406;8.146;2024-01-30T20:23:50;10.73;;;3.08;;
84189;SDS011;74321;53.406;8.146;2024-01-30T20:28:52;10.13;;;2.20;;
84189;SDS011;74321;53.406;8.146;2024-01-30T20:39:00;5.28;;;1.67;;
84189;SDS011;74321;53.406;8.146;2024-01-30T20:44:03;9.43;;;1.70;;
84189;SDS011;74321;53.406;8.146;2024-01-30T20:49:05;6.88;;;2.28;;
84189;SDS011;74321;53.406;8.146;2024-01-30T20:54:07;7.15;;;2.22;;
84189;SDS011;74321;53.406;8.146;2024-01-30T20:59:10;7.88;;;2.03;;
84189;SDS011;74321;53.406;8.146;2024-01-30T21:04:14;9.57;;;2.03;;
84189;SDS011;74321;53.406;8.146;2024-01-30T21:09:16;10.23;;;1.75;;
84189;SDS011;74321;53.406;8.146;2024-01-30T21:14:18;14.70;;;2.53;;
84189;SDS011;74321;53.406;8.146;2024-01-30T21:19:20;11.77;;;2.33;;
84189;SDS011;74321;53.406;8.146;2024-01-30T21:29:28;9.45;;;1.30;;
84189;SDS011;74321;53.406;8.146;2024-01-30T21:34:31;12.25;;;2.17;;
84189;SDS011;74321;53.406;8.146;2024-01-30T21:39:33;7.05;;;1.42;;
84189;SDS011;74321;53.406;8.146;2024-01-30T21:44:35;6.07;;;1.48;;
84189;SDS011;74321;53.406;8.146;2024-01-30T21:49:43;11.38;;;1.88;;
84189;SDS011;74321;53.406;8.146;2024-01-30T21:55:02;18.25;;;1.83;;
84189;SDS011;74321;53.406;8.146;2024-01-30T22:00:06;9.85;;;2.53;;
84189;SDS011;74321;53.406;8.146;2024-01-30T22:05:21;17.55;;;3.20;;
84189;SDS011;74321;53.406;8.146;2024-01-30T22:10:23;13.68;;;1.65;;
84189;SDS011;74321;53.406;8.146;2024-01-30T22:15:25;14.80;;;1.42;;
84189;SDS011;74321;53.406;8.146;2024-01-30T22:20:27;6.55;;;0.90;;
84189;SDS011;74321;53.406;8.146;2024-01-30T22:25:30;4.47;;;1.10;;
84189;SDS011;74321;53.406;8.146;2024-01-30T22:30:33;7.38;;;1.10;;
84189;SDS011;74321;53.406;8.146;2024-01-30T22:35:38;4.95;;;0.98;;
84189;SDS011;74321;53.406;8.146;2024-01-30T22:40:41;7.88;;;0.82;;
84189;SDS011;74321;53.406;8.146;2024-01-30T22:45:46;6.07;;;0.90;;
84189;SDS011;74321;53.406;8.146;2024-01-30T22:50:51;2.45;;;0.70;;
84189;SDS011;74321;53.406;8.146;2024-01-30T22:55:58;5.28;;;1.10;;
84189;SDS011;74321;53.406;8.146;2024-01-30T23:01:00;5.68;;;1.13;;
84189;SDS011;74321;53.406;8.146;2024-01-30T23:06:03;3.78;;;0.50;;
84189;SDS011;74321;53.406;8.146;2024-01-30T23:11:13;4.28;;;0.73;;
84189;SDS011;74321;53.406;8.146;2024-01-30T23:16:15;1.85;;;0.47;;
84189;SDS011;74321;53.406;8.146;2024-01-30T23:21:23;4.35;;;0.60;;
84189;SDS011;74321;53.406;8.146;2024-01-30T23:26:29;3.95;;;0.60;;
84189;SDS011;74321;53.406;8.146;2024-01-30T23:31:31;5.07;;;0.55;;
84189;SDS011;74321;53.406;8.146;2024-01-30T23:36:38;2.70;;;0.68;;
84189;SDS011;74321;53.406;8.146;2024-01-30T23:41:50;5.72;;;0.70;;
84189;SDS011;74321;53.406;8.146;2024-01-30T23:46:53;3.90;;;0.55;;
84189;SDS011;74321;53.406;8.146;2024-01-30T23:51:56;5.70;;;0.65;;
84189;SDS011;74321;53.406;8.146;2024-01-30T23:56:58;3.55;;;0.43;;
